Time;durP1;ratioP1;P1;durP2;ratioP2;P2;SDS_P1;SDS_P2;PMS_P1;PMS_P2;Temp;Humidity;BMP_temperature;BMP_pressure;BME280_temperature;BME280_humidity;BME280_pressure;Samples;Min_cycle;Max_cycle;Signal;HPM_P1;HPM_P2
2021/04/26 00:02:05;;;;;;;4.85;2.63;;;;;;;7.56;29.65;101938.50;3562849;40;20033;-71
2021/04/26 00:04:33;;;;;;;5.05;2.53;;;;;;;7.50;29.66;101940.56;3563839;40;20045;-70
2021/04/26 00:07:01;;;;;;;5.50;2.88;;;;;;;7.47;29.79;101943.50;3562839;40;20030;-71
2021/04/26 00:09:29;;;;;;;7.78;3.47;;;;;;;7.41;30.04;101941.09;3566199;40;20046;-70
2021/04/26 00:11:57;;;;;;;6.50;3.58;;;;;;;7.39;30.02;101940.31;3561807;40;20046;-70
2021/04/26 00:14:24;;;;;;;6.35;3.47;;;;;;;7.36;29.82;101934.16;3561155;40;20146;-71
2021/04/26 00:16:52;;;;;;;8.93;4.05;;;;;;;7.33;29.90;101932.47;3565191;40;20088;-70
2021/04/26 00:19:19;;;;;;;8.32;3.63;;;;;;;7.28;29.79;101923.69;3561224;40;20037;-71
2021/04/26 00:21:46;;;;;;;6.50;3.75;;;;;;;7.25;29.79;101923.84;3561691;40;20116;-70
2021/04/26 00:24:14;;;;;;;7.70;3.08;;;;;;;7.23;30.33;101922.19;3567460;40;20045;-71
2021/04/26 00:26:41;;;;;;;6.82;3.42;;;;;;;7.21;29.99;101918.69;3560265;40;20089;-70
2021/04/26 00:29:09;;;;;;;7.22;2.88;;;;;;;7.18;30.04;101918.84;3563201;40;20065;-70
2021/04/26 00:31:36;;;;;;;7.13;3.28;;;;;;;7.14;30.25;101918.16;3559258;40;20052;-70
2021/04/26 00:34:05;;;;;;;5.18;2.42;;;;;;;7.14;30.11;101918.16;3559705;40;20073;-70
2021/04/26 00:36:32;;;;;;;5.07;2.97;;;;;;;7.09;30.24;101921.09;3539360;40;20031;-71
2021/04/26 00:39:03;;;;;;;4.45;2.83;;;;;;;7.08;30.35;101913.00;3530848;40;20054;-70
2021/04/26 00:41:31;;;;;;;4.75;2.60;;;;;;;7.05;30.41;101905.94;3537148;40;20039;-71
2021/04/26 00:43:58;;;;;;;5.00;2.90;;;;;;;7.03;30.23;101902.38;3535566;40;20063;-71
2021/04/26 00:46:25;;;;;;;4.63;2.47;;;;;;;7.01;30.47;101903.41;3535164;40;20086;-71
2021/04/26 00:48:53;;;;;;;6.00;2.90;;;;;;;6.99;30.73;101902.63;3539472;40;20086;-71
2021/04/26 00:51:21;;;;;;;5.93;3.03;;;;;;;6.96;30.82;101902.78;3529744;40;20039;-71
2021/04/26 00:53:49;;;;;;;6.65;3.10;;;;;;;6.91;30.62;101896.75;3524531;40;20197;-71
2021/04/26 00:56:17;;;;;;;4.25;2.58;;;;;;;6.87;30.50;101897.84;3519963;40;20465;-71
2021/04/26 00:58:44;;;;;;;3.95;2.53;;;;;;;6.82;30.44;101898.13;3518481;40;20111;-70
2021/04/26 01:01:12;;;;;;;4.18;2.38;;;;;;;6.79;30.77;101887.38;3517046;40;20039;-70
2021/04/26 01:03:40;;;;;;;4.53;2.42;;;;;;;6.74;30.85;101887.66;3515592;40;20348;-71
2021/04/26 01:06:09;;;;;;;4.55;2.70;;;;;;;6.72;30.92;101884.13;3514995;40;20395;-70
2021/04/26 01:08:37;;;;;;;4.30;2.70;;;;;;;6.70;30.83;101887.88;3532242;40;20354;-70
2021/04/26 01:11:09;;;;;;;;;;;;;;;6.44;31.22;101881.13;3527813;40;20054;-70
2021/04/26 01:13:58;;;;;;;4.88;2.70;;;;;;;6.62;31.38;101874.72;3510967;40;19946;-70
2021/04/26 01:16:32;;;;;;;4.60;2.45;;;;;;;6.63;31.10;101873.75;3522716;40;20043;-70
2021/04/26 01:19:06;;;;;;;5.05;2.75;;;;;;;6.61;30.83;101869.34;3539401;40;20102;-71
2021/04/26 01:22:26;;;;;;;5.75;3.08;;;;;;;6.55;31.25;101870.56;3530841;40;20057;-71
2021/04/26 01:24:58;;;;;;;3.72;2.15;;;;;;;6.55;31.28;101861.53;3547708;40;20057;-70
2021/04/26 01:28:03;;;;;;;4.20;2.50;;;;;;;6.54;31.32;101867.91;3545970;40;20037;-70
2021/04/26 01:30:34;;;;;;;5.25;2.35;;;;;;;6.49;31.00;101864.59;3505687;40;20043;-71
2021/04/26 01:33:18;;;;;;;5.40;2.70;;;;;;;6.48;31.15;101865.53;3570418;40;20045;-71
2021/04/26 01:35:55;;;;;;;4.60;2.60;;;;;;;6.45;30.92;101871.13;3557024;40;20040;-70
2021/04/26 01:38:27;;;;;;;4.28;2.80;;;;;;;6.45;31.72;101861.13;3598918;23;20116;-76
2021/04/26 01:40:57;;;;;;;4.53;2.55;;;;;;;6.42;31.00;101860.44;3570730;40;20417;-80
2021/04/26 01:43:27;;;;;;;4.50;2.78;;;;;;;6.41;31.17;101859.56;3574294;40;20040;-77
2021/04/26 01:45:58;;;;;;;5.68;2.85;;;;;;;6.40;31.40;101862.34;3574198;40;20056;-76
2021/04/26 01:48:30;;;;;;;5.72;2.90;;;;;;;6.38;31.44;101858.81;3573953;40;20029;-77
2021/04/26 01:51:02;;;;;;;3.53;2.35;;;;;;;6.34;31.10;101863.53;3567933;40;20029;-77
2021/04/26 01:53:32;;;;;;;3.47;2.20;;;;;;;6.33;31.31;101861.81;3577340;40;20052;-77
2021/04/26 01:56:02;;;;;;;3.40;2.47;;;;;;;6.32;31.31;101860.91;3575203;40;20377;-76
2021/04/26 01:58:39;;;;;;;4.32;2.58;;;;;;;6.30;31.18;101860.13;3568517;40;20091;-76
2021/04/26 02:01:07;;;;;;;5.53;2.35;;;;;;;6.29;31.08;101857.47;3575719;40;20053;-76
2021/04/26 02:03:36;;;;;;;6.18;2.75;;;;;;;6.28;31.17;101858.44;3567502;40;20045;-76
2021/04/26 02:06:09;;;;;;;5.43;2.70;;;;;;;6.24;31.17;101854.13;3567481;40;20118;-76
2021/04/26 02:08:59;;;;;;;6.45;2.63;;;;;;;6.22;31.18;101847.88;3578755;40;20059;-77
2021/04/26 02:11:29;;;;;;;5.70;2.80;;;;;;;6.21;31.20;101849.72;3577791;40;20057;-76
2021/04/26 02:13:57;;;;;;;5.07;2.65;;;;;;;6.19;31.10;101851.63;3578445;40;20061;-76
2021/04/26 02:16:24;;;;;;;4.57;2.45;;;;;;;6.17;31.37;101850.81;3577616;40;20057;-76
2021/04/26 02:18:53;;;;;;;3.63;2.40;;;;;;;6.16;31.36;101854.53;3577418;40;20069;-76
2021/04/26 02:21:21;;;;;;;3.42;2.47;;;;;;;6.13;31.58;101849.25;3571249;40;20060;-76
2021/04/26 02:23:48;;;;;;;5.00;2.40;;;;;;;6.12;31.53;101854.75;3574477;40;20033;-76
2021/04/26 02:26:16;;;;;;;4.55;2.35;;;;;;;6.10;31.54;101849.38;3575060;40;20041;-76
2021/04/26 02:28:44;;;;;;;4.88;3.03;;;;;;;6.09;31.56;101842.19;3577742;40;20398;-77
2021/04/26 02:31:16;;;;;;;4.43;2.40;;;;;;;6.08;31.89;101848.63;3577680;40;20068;-76
2021/04/26 02:33:52;;;;;;;8.02;3.10;;;;;;;6.07;32.35;101841.44;3578239;40;20384;-76
2021/04/26 02:36:32;;;;;;;5.45;3.10;;;;;;;6.04;32.26;101835.25;3574191;40;20049;-77
2021/04/26 02:39:05;;;;;;;6.43;2.50;;;;;;;5.98;31.78;101839.19;3569259;40;20338;-77
2021/04/26 02:41:36;;;;;;;4.03;2.92;;;;;;;5.96;31.81;101828.38;3577694;40;20104;-76
2021/04/26 02:44:17;;;;;;;5.57;2.53;;;;;;;5.96;32.10;101824.78;3577220;40;20048;-76
2021/04/26 02:46:47;;;;;;;3.88;2.25;;;;;;;5.91;31.70;101821.44;3577930;40;20334;-76
2021/04/26 02:49:16;;;;;;;6.10;2.95;;;;;;;5.89;31.68;101809.78;3577562;40;20041;-76
2021/04/26 02:51:45;;;;;;;5.75;2.58;;;;;;;5.87;31.87;101814.41;3578518;40;20053;-76
2021/04/26 02:54:14;;;;;;;4.80;2.60;;;;;;;5.82;31.57;101809.22;3569848;40;20045;-76
2021/04/26 02:56:43;;;;;;;5.18;2.80;;;;;;;5.81;32.04;101807.47;3569710;40;20315;-77
2021/04/26 02:59:16;;;;;;;5.18;2.67;;;;;;;5.78;32.05;101804.91;3578573;40;20049;-76
2021/04/26 03:01:45;;;;;;;4.40;2.47;;;;;;;5.76;32.19;101803.22;3577413;40;20061;-76
2021/04/26 03:04:21;;;;;;;3.83;2.42;;;;;;;5.75;32.40;101809.63;3573666;40;20107;-76
2021/04/26 03:06:52;;;;;;;8.57;2.70;;;;;;;5.72;32.04;101804.34;3576239;40;20398;-76
2021/04/26 03:09:22;;;;;;;3.70;2.10;;;;;;;5.70;32.34;101812.53;3576566;40;20049;-76
2021/04/26 03:11:55;;;;;;;;;;;;;;;5.46;32.63;101809.22;3577206;40;20053;-76
2021/04/26 03:14:25;;;;;;;3.35;2.25;;;;;;;5.62;32.02;101795.78;3576160;40;20235;-80
2021/04/26 03:16:55;;;;;;;5.55;2.47;;;;;;;5.65;32.06;101802.91;3577846;40;20039;-77
2021/04/26 03:19:23;;;;;;;5.03;1.98;;;;;;;5.63;31.96;101794.81;3578040;40;20044;-77
2021/04/26 03:21:54;;;;;;;4.57;2.22;;;;;;;5.63;32.01;101793.94;3569411;40;20056;-77
2021/04/26 03:24:22;;;;;;;5.38;2.50;;;;;;;5.59;31.75;101785.09;3578377;40;20048;-77
2021/04/26 03:26:55;;;;;;;5.35;2.60;;;;;;;5.59;32.42;101782.38;3576489;40;20130;-76
2021/04/26 03:29:26;;;;;;;5.75;2.85;;;;;;;5.53;32.13;101772.69;3573956;40;20460;-76
2021/04/26 03:31:55;;;;;;;4.18;2.50;;;;;;;5.52;31.94;101775.47;3567445;40;20410;-76
2021/04/26 03:34:28;;;;;;;4.28;2.20;;;;;;;5.46;31.75;101768.50;3575068;40;20049;-76
2021/04/26 03:36:57;;;;;;;3.78;2.20;;;;;;;5.47;31.79;101774.81;3576340;40;20056;-76
2021/04/26 03:39:31;;;;;;;4.63;2.45;;;;;;;5.43;31.81;101770.50;3566294;40;20394;-77
2021/04/26 03:42:12;;;;;;;6.07;2.40;;;;;;;5.41;32.28;101767.00;3568119;40;20061;-76
2021/04/26 03:44:54;;;;;;;4.07;2.58;;;;;;;5.38;32.00;101759.88;3577062;40;20041;-76
2021/04/26 03:48:01;;;;;;;5.32;2.55;;;;;;;5.33;32.18;101761.06;3578333;40;20391;-76
2021/04/26 03:51:12;;;;;;;5.20;2.50;;;;;;;5.31;32.09;101771.09;3576053;40;20045;-76
2021/04/26 03:54:14;;;;;;;4.35;2.50;;;;;;;5.28;32.03;101769.41;3565584;40;20158;-76
2021/04/26 03:57:03;;;;;;;5.00;2.50;;;;;;;5.27;31.84;101772.19;3575881;40;20317;-76
2021/04/26 03:59:50;;;;;;;3.75;2.65;;;;;;;5.25;32.00;101774.13;3575594;40;20056;-77
2021/04/26 04:02:38;;;;;;;6.38;3.03;;;;;;;5.22;32.48;101767.91;3577742;40;20322;-76
2021/04/26 04:05:26;;;;;;;5.88;2.97;;;;;;;5.21;32.44;101765.25;3575639;40;20080;-76
2021/04/26 04:08:34;;;;;;;4.63;2.50;;;;;;;5.16;32.30;101761.91;3572204;40;20044;-76
2021/04/26 04:11:51;;;;;;;7.13;2.85;;;;;;;5.15;32.53;101769.16;3574460;40;20063;-77
2021/04/26 04:14:54;;;;;;;7.07;3.05;;;;;;;5.13;32.39;101767.47;3576722;40;20051;-76
2021/04/26 04:17:41;;;;;;;4.57;3.03;;;;;;;5.12;32.29;101765.72;3574706;40;20056;-76
2021/04/26 04:20:29;;;;;;;5.55;2.90;;;;;;;5.13;32.56;101767.47;3570244;40;20417;-75
2021/04/26 04:23:16;;;;;;;7.10;3.42;;;;;;;5.11;32.70;101764.81;3574772;40;20379;-76
2021/04/26 04:26:06;;;;;;;6.50;3.15;;;;;;;5.11;32.46;101772.09;3571029;40;20057;-77
2021/04/26 04:28:40;;;;;;;5.68;3.20;;;;;;;5.12;32.60;101763.00;3573726;40;20053;-76
2021/04/26 04:31:43;;;;;;;7.63;2.72;;;;;;;5.05;32.77;101765.13;3572503;40;20049;-77
2021/04/26 04:34:45;;;;;;;7.07;3.28;;;;;;;5.05;32.67;101772.38;3572224;40;20222;-75
2021/04/26 04:37:51;;;;;;;5.93;3.28;;;;;;;5.03;32.52;101772.47;3574820;40;20073;-76
2021/04/26 04:40:58;;;;;;;5.03;3.00;;;;;;;5.03;32.57;101772.47;3576707;40;20041;-75
2021/04/26 04:43:50;;;;;;;6.13;3.47;;;;;;;5.03;32.87;101777.00;3574655;40;20055;-76
2021/04/26 04:46:38;;;;;;;5.43;3.38;;;;;;;5.00;32.83;101775.34;3574718;40;20052;-75
2021/04/26 04:49:44;;;;;;;5.05;3.25;;;;;;;4.98;32.90;101782.66;3575758;40;20122;-76
2021/04/26 04:52:31;;;;;;;7.90;3.72;;;;;;;4.96;32.90;101771.00;3574806;40;20083;-75
2021/04/26 04:55:18;;;;;;;7.40;3.55;;;;;;;4.97;32.89;101769.16;3574145;40;20053;-76
2021/04/26 04:58:06;;;;;;;8.38;3.45;;;;;;;4.96;32.71;101772.84;3574274;40;20386;-76
2021/04/26 05:00:54;;;;;;;9.95;3.47;;;;;;;4.95;33.00;101773.78;3576332;40;20088;-75
2021/04/26 05:04:05;;;;;;;6.93;3.42;;;;;;;4.93;33.28;101773.88;3564882;40;20033;-76
2021/04/26 05:07:12;;;;;;;6.30;3.60;;;;;;;4.91;32.86;101767.66;3574658;40;20126;-76
2021/04/26 05:10:18;;;;;;;5.88;3.42;;;;;;;4.92;32.92;101773.94;3577541;40;20040;-79
2021/04/26 05:13:36;;;;;;;5.43;3.28;;;;;;;4.94;33.32;101766.59;3579966;40;20037;-78
2021/04/26 05:16:27;;;;;;;6.05;3.47;;;;;;;4.98;33.04;101766.41;3575251;40;20382;-78
2021/04/26 05:19:14;;;;;;;5.18;3.05;;;;;;;5.01;33.03;101763.53;3576116;40;20069;-78
2021/04/26 05:21:42;;;;;;;5.53;3.03;;;;;;;5.11;33.50;101764.81;3574209;40;20052;-78
2021/04/26 05:24:10;;;;;;;5.65;3.30;;;;;;;5.22;33.66;101765.19;3576561;40;20111;-78
2021/04/26 05:26:39;;;;;;;6.10;3.55;;;;;;;5.32;33.89;101757.47;3578935;40;20137;-80
2021/04/26 05:29:09;;;;;;;5.47;3.28;;;;;;;5.44;33.50;101764.09;3578569;40;20049;-78
2021/04/26 05:31:41;;;;;;;5.55;3.30;;;;;;;5.55;33.80;101756.34;3575398;40;20061;-77
2021/04/26 05:34:20;;;;;;;8.82;3.80;;;;;;;5.66;33.34;101762.09;3568688;40;20334;-76
2021/04/26 05:37:00;;;;;;;6.88;3.30;;;;;;;5.77;33.55;101761.53;3577081;40;20030;-75
2021/04/26 05:39:29;;;;;;;7.90;3.88;;;;;;;5.88;33.31;101761.84;3577112;40;20073;-75
2021/04/26 05:41:59;;;;;;;7.65;4.05;;;;;;;5.99;33.30;101770.31;3578027;40;20049;-74
2021/04/26 05:44:36;;;;;;;6.80;3.67;;;;;;;6.08;33.04;101761.69;3577712;40;20053;-78
2021/04/26 05:47:39;;;;;;;5.70;3.17;;;;;;;6.18;33.03;101770.22;3579849;40;20039;-79
2021/04/26 05:50:09;;;;;;;7.85;4.00;;;;;;;6.29;33.05;101773.22;3580037;40;20114;-79
2021/04/26 05:52:39;;;;;;;5.63;3.28;;;;;;;6.37;32.88;101776.41;3579695;40;20091;-78
2021/04/26 05:55:08;;;;;;;5.07;3.28;;;;;;;6.46;32.63;101772.31;3578251;40;20306;-77
2021/04/26 05:57:45;;;;;;;6.63;2.95;;;;;;;6.53;32.79;101779.16;3576677;40;20041;-77
2021/04/26 06:00:23;;;;;;;6.15;3.20;;;;;;;6.60;32.35;101784.19;3578972;40;20119;-77
2021/04/26 06:02:51;;;;;;;4.53;3.17;;;;;;;6.68;32.35;101781.03;3570855;40;20137;-76
2021/04/26 06:05:22;;;;;;;5.60;2.97;;;;;;;6.74;32.52;101778.88;3578557;40;20406;-77
2021/04/26 06:07:52;;;;;;;5.40;2.90;;;;;;;6.81;32.27;101759.50;3578272;40;20056;-76
2021/04/26 06:10:19;;;;;;;4.90;3.13;;;;;;;6.89;32.10;101768.09;3579506;40;20061;-77
2021/04/26 06:12:51;;;;;;;6.55;2.60;;;;;;;6.95;32.14;101773.19;3580230;40;20033;-79
2021/04/26 06:15:25;;;;;;;4.88;2.53;;;;;;;7.03;31.81;101774.50;3579852;40;20052;-79
2021/04/26 06:18:10;;;;;;;5.75;2.60;;;;;;;7.16;31.41;101769.25;3577782;40;20045;-77
2021/04/26 06:20:41;;;;;;;6.80;2.15;;;;;;;7.23;31.93;101772.53;3578516;40;20368;-78
2021/04/26 06:23:13;;;;;;;4.30;2.17;;;;;;;7.30;31.87;101768.47;3573597;40;20036;-80
2021/04/26 06:25:51;;;;;;;3.45;2.03;;;;;;;7.44;31.93;101765.81;3572167;40;20064;-75
2021/04/26 06:28:20;;;;;;;4.70;2.35;;;;;;;7.60;31.85;101763.94;3574907;40;20053;-73
2021/04/26 06:30:56;;;;;;;3.80;1.92;;;;;;;7.76;31.88;101761.16;3574511;40;20049;-73
2021/04/26 06:33:24;;;;;;;4.38;2.22;;;;;;;7.94;31.63;101756.47;3567491;40;20045;-76
2021/04/26 06:36:02;;;;;;;3.88;1.92;;;;;;;8.08;31.71;101753.75;3576842;40;20052;-73
2021/04/26 06:38:31;;;;;;;3.08;1.85;;;;;;;8.27;31.52;101759.81;3579216;40;20378;-78
2021/04/26 06:41:05;;;;;;;3.80;1.95;;;;;;;8.54;31.91;101759.97;3574954;40;20507;-77
2021/04/26 06:43:35;;;;;;;4.30;1.80;;;;;;;8.99;32.40;101756.13;3578681;40;20041;-78
2021/04/26 06:46:11;;;;;;;4.75;1.88;;;;;;;9.50;32.20;101759.09;3577320;40;20279;-78
2021/04/26 06:48:39;;;;;;;5.13;2.30;;;;;;;9.95;31.84;101768.78;3567794;40;20056;-76
2021/04/26 06:51:16;;;;;;;4.75;1.77;;;;;;;10.35;32.12;101765.00;3575795;40;20069;-78
2021/04/26 06:53:47;;;;;;;3.80;2.22;;;;;;;10.70;31.59;101764.31;3577445;40;20072;-76
2021/04/26 06:56:15;;;;;;;3.38;1.67;;;;;;;11.01;31.11;101763.84;3577171;40;20142;-74
2021/04/26 06:58:53;;;;;;;3.75;1.70;;;;;;;11.31;30.68;101751.59;3577629;40;20052;-76
2021/04/26 07:01:24;;;;;;;3.58;1.50;;;;;;;11.61;29.20;101757.47;3574615;40;20056;-72
2021/04/26 07:03:52;;;;;;;3.47;1.58;;;;;;;11.87;29.27;101758.19;3574904;40;20126;-75
2021/04/26 07:06:23;;;;;;;2.53;1.65;;;;;;;12.15;28.71;101763.31;3575840;40;20049;-75
2021/04/26 07:08:51;;;;;;;2.65;1.50;;;;;;;12.42;28.18;101754.78;3574552;40;20635;-75
2021/04/26 07:11:22;;;;;;;2.75;1.30;;;;;;;12.69;27.52;101754.41;3574809;40;20436;-75
2021/04/26 07:13:59;;;;;;;2.55;1.30;;;;;;;12.92;27.10;101736.97;3573852;40;20065;-75
2021/04/26 07:16:31;;;;;;;2.35;1.08;;;;;;;13.16;26.59;101748.69;3575056;40;20052;-74
2021/04/26 07:19:02;;;;;;;2.47;1.38;;;;;;;13.36;25.82;101740.63;3577586;40;20130;-74
2021/04/26 07:21:30;;;;;;;1.98;1.08;;;;;;;13.52;25.19;101738.31;3573084;40;20100;-73
2021/04/26 07:23:59;;;;;;;4.35;1.48;;;;;;;13.67;25.33;101731.50;3578252;40;20052;-74
2021/04/26 07:26:27;;;;;;;2.15;1.30;;;;;;;13.83;24.87;101736.59;3576324;40;20049;-73
2021/04/26 07:29:17;;;;;;;2.33;1.08;;;;;;;13.97;24.33;101733.53;3578565;40;20429;-75
2021/04/26 07:31:46;;;;;;;2.03;0.90;;;;;;;14.09;23.95;101737.09;3578142;40;20045;-75
2021/04/26 07:34:21;;;;;;;2.28;1.00;;;;;;;14.21;23.75;101733.28;3578120;40;20576;-76
2021/04/26 07:36:51;;;;;;;1.38;0.93;;;;;;;14.28;23.63;101735.34;3578230;40;20049;-76
2021/04/26 07:39:24;;;;;;;2.00;1.00;;;;;;;14.36;23.42;101736.53;3573273;40;20065;-76
2021/04/26 07:42:02;;;;;;;2.50;1.10;;;;;;;14.44;23.31;101731.22;3573917;40;20048;-76
2021/04/26 07:44:30;;;;;;;1.75;1.02;;;;;;;14.48;23.32;101724.47;3576223;40;20309;-76
2021/04/26 07:47:01;;;;;;;3.55;1.10;;;;;;;14.53;23.22;101733.16;3575500;40;20076;-75
2021/04/26 07:49:39;;;;;;;2.15;1.20;;;;;;;14.59;22.33;101732.59;3577708;40;20085;-75
2021/04/26 07:52:31;;;;;;;2.17;0.85;;;;;;;14.59;22.65;101727.97;3578720;40;20044;-77
2021/04/26 07:55:09;;;;;;;2.45;1.15;;;;;;;14.66;22.37;101731.03;3576609;40;20412;-76
2021/04/26 07:57:45;;;;;;;1.23;0.88;;;;;;;14.68;22.41;101726.28;3575986;40;20057;-76
2021/04/26 08:00:17;;;;;;;1.45;0.82;;;;;;;14.71;21.98;101723.25;3575226;40;20053;-77
2021/04/26 08:02:54;;;;;;;1.80;1.10;;;;;;;14.71;22.11;101717.75;3575712;40;20053;-77
2021/04/26 08:05:25;;;;;;;2.60;1.10;;;;;;;14.76;21.54;101720.94;3577046;40;20307;-76
2021/04/26 08:08:02;;;;;;;1.33;0.85;;;;;;;14.76;21.75;101715.44;3575848;40;20061;-76
2021/04/26 08:10:37;;;;;;;1.50;0.85;;;;;;;14.79;21.81;101720.72;3576961;40;20088;-76
2021/04/26 08:13:15;;;;;;;1.80;0.90;;;;;;;14.81;21.57;101728.84;3577920;40;20056;-76
2021/04/26 08:15:43;;;;;;;1.85;1.08;;;;;;;14.85;21.48;101716.53;3568960;40;20052;-77
2021/04/26 08:18:22;;;;;;;2.55;1.10;;;;;;;14.86;21.11;101719.13;3568927;40;20064;-78
2021/04/26 08:20:53;;;;;;;2.08;1.02;;;;;;;14.90;20.63;101717.84;3569133;40;20093;-81
2021/04/26 08:23:27;;;;;;;2.75;1.17;;;;;;;14.90;20.94;101725.25;3578513;40;20049;-77
2021/04/26 08:26:01;;;;;;;3.00;1.20;;;;;;;14.90;21.07;101709.56;3579088;40;20029;-79
2021/04/26 08:28:36;;;;;;;2.53;1.10;;;;;;;14.93;20.66;101714.81;3578885;40;20120;-77
2021/04/26 08:31:11;;;;;;;2.67;1.23;;;;;;;14.92;20.51;101707.56;3575722;40;20053;-77
2021/04/26 08:33:40;;;;;;;1.98;1.10;;;;;;;14.94;20.68;101711.03;3578173;40;20052;-77
2021/04/26 08:36:14;;;;;;;1.58;1.00;;;;;;;14.96;20.59;101709.03;3577894;40;20053;-77
2021/04/26 08:38:46;;;;;;;2.05;1.10;;;;;;;14.94;20.85;101708.28;3578745;40;20119;-77
2021/04/26 08:41:16;;;;;;;3.28;1.35;;;;;;;14.97;20.74;101701.63;3578562;40;20061;-77
2021/04/26 08:43:46;;;;;;;3.33;1.13;;;;;;;14.97;20.35;101699.75;3579066;40;20030;-76
2021/04/26 08:46:14;;;;;;;2.03;1.25;;;;;;;14.96;20.41;101695.25;3569043;40;20033;-77
2021/04/26 08:48:48;;;;;;;2.05;1.20;;;;;;;14.97;20.44;101690.63;3567775;40;20065;-77
2021/04/26 08:51:17;;;;;;;1.80;1.20;;;;;;;15.00;20.28;101693.06;3573150;40;20049;-77
2021/04/26 08:53:45;;;;;;;1.52;1.02;;;;;;;15.00;20.24;101687.56;3577800;40;20321;-77
2021/04/26 08:56:16;;;;;;;2.35;1.30;;;;;;;15.02;19.96;101693.81;3578775;40;20057;-76
2021/04/26 08:58:44;;;;;;;2.80;1.50;;;;;;;15.05;19.90;101685.28;3577686;40;20048;-77
2021/04/26 09:01:12;;;;;;;2.60;1.45;;;;;;;15.08;19.75;101690.47;3577607;40;20105;-77
2021/04/26 09:03:48;;;;;;;3.10;1.58;;;;;;;15.11;19.78;101690.22;3578468;40;20064;-77
2021/04/26 09:06:22;;;;;;;3.05;1.40;;;;;;;15.13;19.41;101685.44;3578617;40;20141;-77
2021/04/26 09:08:50;;;;;;;2.40;1.15;;;;;;;15.14;19.37;101681.66;3578871;40;20049;-77
2021/04/26 09:11:26;;;;;;;2.10;1.02;;;;;;;15.15;19.71;101688.06;3578507;40;20063;-77
2021/04/26 09:13:56;;;;;;;2.75;1.15;;;;;;;15.16;19.22;101685.13;3578365;40;20396;-79
2021/04/26 09:16:31;;;;;;;2.38;1.30;;;;;;;15.14;18.94;101695.44;3579701;40;20403;-77
2021/04/26 09:19:00;;;;;;;2.33;1.23;;;;;;;15.12;18.76;101689.19;3578851;40;20055;-77
2021/04/26 09:21:37;;;;;;;2.72;1.20;;;;;;;15.10;18.61;101688.47;3579034;40;20492;-78
2021/04/26 09:24:37;;;;;;;2.03;1.20;;;;;;;15.04;19.34;101683.53;3578954;40;20025;-77
2021/04/26 09:27:17;;;;;;;2.30;1.45;;;;;;;15.05;18.79;101679.75;3578888;40;20139;-78
2021/04/26 09:29:45;;;;;;;5.25;1.60;;;;;;;15.05;19.02;101674.25;3579208;40;20480;-78
2021/04/26 09:32:15;;;;;;;3.05;1.50;;;;;;;15.07;19.52;101667.56;3579501;40;20402;-77
2021/04/26 09:34:45;;;;;;;2.33;1.23;;;;;;;15.10;19.64;101660.03;3579627;40;20085;-78
2021/04/26 09:37:17;;;;;;;4.07;1.70;;;;;;;15.16;19.01;101662.22;3577700;40;20045;-78
2021/04/26 09:40:00;;;;;;;2.08;1.30;;;;;;;15.18;18.58;101655.56;3577617;40;20175;-77
2021/04/26 09:42:41;;;;;;;1.75;1.23;;;;;;;15.21;18.62;101648.88;3578350;40;20377;-77
2021/04/26 09:45:32;;;;;;;2.45;1.20;;;;;;;15.20;19.05;101655.41;3578428;40;20422;-77
2021/04/26 09:48:08;;;;;;;;;;;;;;;14.94;19.54;101647.69;3579912;40;20406;-77
2021/04/26 09:50:54;;;;;;;2.80;1.20;;;;;;;15.23;18.45;101646.88;3574916;40;19937;-78
2021/04/26 09:53:23;;;;;;;3.38;1.30;;;;;;;15.22;18.47;101643.25;3569484;40;20045;-78
2021/04/26 09:55:57;;;;;;;2.60;1.50;;;;;;;15.24;18.84;101632.03;3577669;40;20049;-77
2021/04/26 09:58:28;;;;;;;4.20;1.67;;;;;;;15.22;18.99;101626.69;3578571;40;20052;-77
2021/04/26 10:00:57;;;;;;;4.20;1.50;;;;;;;15.28;19.03;101634.38;3577095;40;20303;-77
2021/04/26 10:03:28;;;;;;;2.40;1.48;;;;;;;15.34;18.93;101627.41;3578147;40;20049;-77
2021/04/26 10:05:57;;;;;;;2.63;1.23;;;;;;;15.37;19.14;101625.25;3569225;40;20184;-77
2021/04/26 10:08:32;;;;;;;2.63;1.60;;;;;;;15.44;18.59;101623.66;3577719;40;20045;-77
2021/04/26 10:11:02;;;;;;;2.60;1.38;;;;;;;15.50;17.85;101615.78;3578345;40;20045;-77
2021/04/26 10:13:33;;;;;;;2.30;1.40;;;;;;;15.50;18.09;101619.44;3577741;40;20318;-76
2021/04/26 10:16:04;;;;;;;2.28;1.45;;;;;;;15.55;18.04;101616.25;3578246;40;20105;-77
2021/04/26 10:18:36;;;;;;;2.67;1.40;;;;;;;15.56;17.95;101610.56;3579256;40;20075;-78
2021/04/26 10:21:34;;;;;;;3.25;1.55;;;;;;;15.53;17.46;101604.50;3578530;40;20378;-79
2021/04/26 10:24:16;;;;;;;2.45;1.50;;;;;;;15.57;17.70;101606.78;3574633;40;20118;-79
2021/04/26 10:26:50;;;;;;;2.95;1.50;;;;;;;15.54;17.82;101593.31;3577928;40;20035;-78
2021/04/26 10:29:29;;;;;;;2.55;1.55;;;;;;;15.55;17.97;101595.06;3576654;40;20035;-79
2021/04/26 10:32:14;;;;;;;3.08;1.42;;;;;;;15.55;17.66;101585.91;3574807;40;20065;-78
2021/04/26 10:35:09;;;;;;;2.63;1.50;;;;;;;15.53;17.81;101588.81;3574282;40;20041;-70
2021/04/26 10:37:41;;;;;;;3.47;1.45;;;;;;;15.50;18.25;101582.72;3574672;40;20066;-71
2021/04/26 10:40:37;;;;;;;1.98;1.30;;;;;;;15.53;18.63;101574.16;3577083;40;20045;-70
2021/04/26 10:43:28;;;;;;;2.13;1.40;;;;;;;15.53;18.14;101568.63;3576623;40;20060;-70
2021/04/26 10:46:19;;;;;;;3.60;1.50;;;;;;;15.55;18.24;101570.25;3575060;40;20409;-70
2021/04/26 10:49:31;;;;;;;3.40;1.70;;;;;;;15.56;18.08;101562.84;3576833;40;20033;-74
2021/04/26 10:52:37;;;;;;;3.17;1.70;;;;;;;15.57;18.25;101556.28;3576640;40;20045;-74
2021/04/26 10:55:41;;;;;;;5.40;1.67;;;;;;;15.60;18.10;101556.00;3578410;40;20056;-76
2021/04/26 10:58:31;;;;;;;2.78;1.60;;;;;;;15.69;17.44;101544.09;3576813;40;20045;-75
2021/04/26 11:01:07;;;;;;;3.13;1.60;;;;;;;15.71;17.74;101544.84;3570013;40;20056;-75
2021/04/26 11:03:42;;;;;;;3.30;1.70;;;;;;;15.76;17.15;101540.59;3577510;40;20056;-75
2021/04/26 11:06:25;;;;;;;2.65;1.80;;;;;;;15.77;17.59;101535.94;3576975;40;20056;-76
2021/04/26 11:09:17;;;;;;;3.00;1.70;;;;;;;15.75;17.72;101532.47;3574686;40;20398;-75
2021/04/26 11:12:31;;;;;;;3.92;1.38;;;;;;;15.73;17.92;101510.53;3577558;40;20056;-75
2021/04/26 11:15:13;;;;;;;3.30;1.70;;;;;;;15.80;17.66;101521.88;3577639;40;20319;-75
2021/04/26 11:17:49;;;;;;;3.47;1.88;;;;;;;15.80;17.29;101511.72;3575571;40;20049;-74
2021/04/26 11:20:21;;;;;;;3.38;1.90;;;;;;;15.82;17.14;101517.91;3578816;40;20057;-74
2021/04/26 11:22:52;;;;;;;2.00;1.33;;;;;;;15.86;17.45;101514.88;3568960;40;20049;-75
2021/04/26 11:25:34;;;;;;;3.55;1.70;;;;;;;15.90;16.91;101513.53;3578191;40;20096;-74
2021/04/26 11:28:08;;;;;;;3.28;1.58;;;;;;;15.90;17.76;101499.72;3576221;40;20317;-74
2021/04/26 11:30:50;;;;;;;3.08;1.58;;;;;;;15.95;17.50;101509.31;3576515;40;20380;-75
2021/04/26 11:33:20;;;;;;;3.38;1.70;;;;;;;15.98;17.25;101499.84;3577285;40;20067;-77
2021/04/26 11:36:22;;;;;;;3.55;2.05;;;;;;;15.97;17.26;101498.97;3578463;40;20049;-75
2021/04/26 11:39:02;;;;;;;2.67;1.60;;;;;;;16.06;17.23;101494.44;3575478;40;20110;-75
2021/04/26 11:41:39;;;;;;;2.75;1.58;;;;;;;16.09;17.10;101485.84;3575855;40;20055;-73
2021/04/26 11:44:26;;;;;;;3.25;2.05;;;;;;;16.14;17.62;101477.97;3575995;40;20056;-74
2021/04/26 11:47:01;;;;;;;2.92;1.75;;;;;;;16.18;17.54;101476.66;3576689;40;20491;-74
2021/04/26 11:49:35;;;;;;;2.97;2.00;;;;;;;16.19;17.56;101471.00;3577979;40;20103;-74
2021/04/26 11:52:14;;;;;;;4.35;2.17;;;;;;;16.27;17.07;101470.22;3574742;40;20061;-75
2021/04/26 11:55:06;;;;;;;3.50;1.83;;;;;;;16.28;17.43;101460.91;3576626;40;20061;-76
2021/04/26 11:57:42;;;;;;;3.88;1.83;;;;;;;16.35;17.19;101450.97;3579014;40;20037;-78
2021/04/26 12:00:27;;;;;;;3.22;2.00;;;;;;;16.38;17.54;101447.91;3578417;40;20030;-81
2021/04/26 12:03:05;;;;;;;3.90;2.15;;;;;;;16.44;16.88;101447.28;3571958;40;20041;-80
2021/04/26 12:05:37;;;;;;;4.07;2.20;;;;;;;16.38;16.56;101438.75;3579783;40;20033;-77
2021/04/26 12:08:07;;;;;;;3.90;2.30;;;;;;;16.35;16.57;101442.69;3572302;40;20514;-77
2021/04/26 12:10:40;;;;;;;4.15;2.00;;;;;;;16.31;16.82;101434.88;3579058;40;20305;-79
2021/04/26 12:13:12;;;;;;;4.00;2.13;;;;;;;16.29;16.65;101431.41;3572962;40;20428;-80
2021/04/26 12:15:47;;;;;;;3.15;1.67;;;;;;;16.31;16.39;101427.44;3579922;40;20063;-78
2021/04/26 12:18:25;;;;;;;4.05;2.22;;;;;;;16.30;16.75;101427.63;3575880;40;20053;-79